sensor_id;sensor_type;location;lat;lon;timestamp;P1;durP1;ratioP1;P2;durP2;ratioP2
37407;SDS011;24866;50.248;8.252;2022-09-28T00:00:03;8.25;;;6.05;;
37407;SDS011;24866;50.248;8.252;2022-09-28T00:02:33;11.23;;;6.00;;
37407;SDS011;24866;50.248;8.252;2022-09-28T00:05:04;8.35;;;5.78;;
37407;SDS011;24866;50.248;8.252;2022-09-28T00:07:34;10.10;;;5.85;;
37407;SDS011;24866;50.248;8.252;2022-09-28T00:10:06;8.30;;;5.72;;
37407;SDS011;24866;50.248;8.252;2022-09-28T00:12:36;9.07;;;5.35;;
37407;SDS011;24866;50.248;8.252;2022-09-28T00:15:07;8.27;;;5.90;;
37407;SDS011;24866;50.248;8.252;2022-09-28T00:17:37;8.40;;;5.68;;
37407;SDS011;24866;50.248;8.252;2022-09-28T00:20:07;8.85;;;5.43;;
37407;SDS011;24866;50.248;8.252;2022-09-28T00:22:37;10.98;;;5.72;;
37407;SDS011;24866;50.248;8.252;2022-09-28T00:25:09;8.27;;;4.95;;
37407;SDS011;24866;50.248;8.252;2022-09-28T00:27:39;7.32;;;5.03;;
37407;SDS011;24866;50.248;8.252;2022-09-28T00:30:09;8.70;;;5.35;;
37407;SDS011;24866;50.248;8.252;2022-09-28T00:32:39;9.05;;;5.35;;
37407;SDS011;24866;50.248;8.252;2022-09-28T00:35:09;7.22;;;4.93;;
37407;SDS011;24866;50.248;8.252;2022-09-28T00:37:39;7.47;;;4.47;;
37407;SDS011;24866;50.248;8.252;2022-09-28T00:40:10;7.35;;;4.93;;
37407;SDS011;24866;50.248;8.252;2022-09-28T00:42:40;6.85;;;4.70;;
37407;SDS011;24866;50.248;8.252;2022-09-28T00:45:12;6.63;;;4.55;;
37407;SDS011;24866;50.248;8.252;2022-09-28T00:47:42;7.85;;;4.60;;
37407;SDS011;24866;50.248;8.252;2022-09-28T00:50:20;6.00;;;3.53;;
37407;SDS011;24866;50.248;8.252;2022-09-28T00:52:52;7.97;;;4.28;;
37407;SDS011;24866;50.248;8.252;2022-09-28T00:55:27;5.40;;;4.00;;
37407;SDS011;24866;50.248;8.252;2022-09-28T00:58:03;5.78;;;3.65;;
37407;SDS011;24866;50.248;8.252;2022-09-28T01:00:35;5.97;;;4.18;;
37407;SDS011;24866;50.248;8.252;2022-09-28T01:03:07;5.47;;;4.05;;
37407;SDS011;24866;50.248;8.252;2022-09-28T01:05:38;5.13;;;3.90;;
37407;SDS011;24866;50.248;8.252;2022-09-28T01:08:08;5.53;;;3.80;;
37407;SDS011;24866;50.248;8.252;2022-09-28T01:10:40;6.13;;;4.40;;
37407;SDS011;24866;50.248;8.252;2022-09-28T01:13:11;6.28;;;4.45;;
37407;SDS011;24866;50.248;8.252;2022-09-28T01:15:46;7.25;;;4.28;;
37407;SDS011;24866;50.248;8.252;2022-09-28T01:18:23;6.35;;;4.95;;
37407;SDS011;24866;50.248;8.252;2022-09-28T01:20:59;6.05;;;4.43;;
37407;SDS011;24866;50.248;8.252;2022-09-28T01:23:42;6.07;;;3.83;;
37407;SDS011;24866;50.248;8.252;2022-09-28T01:29:10;5.32;;;3.58;;
37407;SDS011;24866;50.248;8.252;2022-09-28T01:31:47;5.57;;;3.35;;
37407;SDS011;24866;50.248;8.252;2022-09-28T01:34:22;5.03;;;2.75;;
37407;SDS011;24866;50.248;8.252;2022-09-28T01:36:57;7.45;;;3.40;;
37407;SDS011;24866;50.248;8.252;2022-09-28T01:42:03;5.13;;;3.03;;
37407;SDS011;24866;50.248;8.252;2022-09-28T01:44:37;4.63;;;2.85;;
37407;SDS011;24866;50.248;8.252;2022-09-28T01:47:11;5.82;;;3.45;;
37407;SDS011;24866;50.248;8.252;2022-09-28T01:49:44;3.58;;;2.58;;
37407;SDS011;24866;50.248;8.252;2022-09-28T01:52:18;4.15;;;2.72;;
37407;SDS011;24866;50.248;8.252;2022-09-28T01:54:56;3.00;;;1.90;;
37407;SDS011;24866;50.248;8.252;2022-09-28T01:57:33;3.58;;;1.88;;
37407;SDS011;24866;50.248;8.252;2022-09-28T02:00:09;3.08;;;1.52;;
37407;SDS011;24866;50.248;8.252;2022-09-28T02:05:15;1.83;;;1.20;;
37407;SDS011;24866;50.248;8.252;2022-09-28T02:07:50;1.75;;;1.00;;
37407;SDS011;24866;50.248;8.252;2022-09-28T02:10:26;2.13;;;0.80;;
37407;SDS011;24866;50.248;8.252;2022-09-28T02:13:03;1.55;;;0.77;;
37407;SDS011;24866;50.248;8.252;2022-09-28T02:15:49;2.80;;;0.60;;
37407;SDS011;24866;50.248;8.252;2022-09-28T02:18:21;1.38;;;0.50;;
37407;SDS011;24866;50.248;8.252;2022-09-28T02:20:54;2.47;;;0.68;;
37407;SDS011;24866;50.248;8.252;2022-09-28T02:23:28;1.23;;;0.52;;
37407;SDS011;24866;50.248;8.252;2022-09-28T02:26:04;1.52;;;0.55;;
37407;SDS011;24866;50.248;8.252;2022-09-28T02:28:38;2.33;;;0.60;;
37407;SDS011;24866;50.248;8.252;2022-09-28T02:31:08;1.00;;;0.47;;
37407;SDS011;24866;50.248;8.252;2022-09-28T02:33:38;0.90;;;0.55;;
37407;SDS011;24866;50.248;8.252;2022-09-28T02:36:11;2.85;;;0.50;;
37407;SDS011;24866;50.248;8.252;2022-09-28T02:38:41;2.72;;;0.40;;
37407;SDS011;24866;50.248;8.252;2022-09-28T02:41:14;0.98;;;0.38;;
37407;SDS011;24866;50.248;8.252;2022-09-28T02:46:34;0.60;;;0.20;;
37407;SDS011;24866;50.248;8.252;2022-09-28T02:49:14;1.27;;;0.40;;
37407;SDS011;24866;50.248;8.252;2022-09-28T02:51:57;1.67;;;0.30;;
37407;SDS011;24866;50.248;8.252;2022-09-28T02:54:47;2.95;;;0.60;;
37407;SDS011;24866;50.248;8.252;2022-09-28T02:57:54;1.70;;;0.45;;
37407;SDS011;24866;50.248;8.252;2022-09-28T03:00:45;1.98;;;0.50;;
37407;SDS011;24866;50.248;8.252;2022-09-28T03:03:24;0.80;;;0.40;;
37407;SDS011;24866;50.248;8.252;2022-09-28T03:06:00;1.05;;;0.35;;
37407;SDS011;24866;50.248;8.252;2022-09-28T03:08:34;2.38;;;0.50;;
37407;SDS011;24866;50.248;8.252;2022-09-28T03:11:08;1.35;;;0.52;;
37407;SDS011;24866;50.248;8.252;2022-09-28T03:13:41;0.88;;;0.30;;
37407;SDS011;24866;50.248;8.252;2022-09-28T03:16:14;2.15;;;0.50;;
37407;SDS011;24866;50.248;8.252;2022-09-28T03:18:46;1.33;;;0.50;;
37407;SDS011;24866;50.248;8.252;2022-09-28T03:21:16;1.08;;;0.55;;
37407;SDS011;24866;50.248;8.252;2022-09-28T03:23:46;1.63;;;0.47;;
37407;SDS011;24866;50.248;8.252;2022-09-28T03:26:16;2.30;;;0.50;;
37407;SDS011;24866;50.248;8.252;2022-09-28T03:28:47;1.60;;;0.47;;
37407;SDS011;24866;50.248;8.252;2022-09-28T03:31:18;3.05;;;0.60;;
37407;SDS011;24866;50.248;8.252;2022-09-28T03:33:49;1.65;;;0.50;;
37407;SDS011;24866;50.248;8.252;2022-09-28T03:36:20;1.08;;;0.43;;
37407;SDS011;24866;50.248;8.252;2022-09-28T03:38:50;2.35;;;0.50;;
37407;SDS011;24866;50.248;8.252;2022-09-28T03:41:22;1.85;;;1.13;;
37407;SDS011;24866;50.248;8.252;2022-09-28T03:43:54;2.78;;;0.75;;
37407;SDS011;24866;50.248;8.252;2022-09-28T03:46:26;0.95;;;0.50;;
37407;SDS011;24866;50.248;8.252;2022-09-28T03:48:55;2.33;;;0.90;;
37407;SDS011;24866;50.248;8.252;2022-09-28T03:51:26;3.13;;;0.85;;
37407;SDS011;24866;50.248;8.252;2022-09-28T03:53:56;2.50;;;0.82;;
37407;SDS011;24866;50.248;8.252;2022-09-28T03:56:26;1.85;;;0.85;;
37407;SDS011;24866;50.248;8.252;2022-09-28T03:58:56;3.63;;;1.25;;
37407;SDS011;24866;50.248;8.252;2022-09-28T04:01:27;4.70;;;0.90;;
37407;SDS011;24866;50.248;8.252;2022-09-28T04:03:57;3.33;;;1.10;;
37407;SDS011;24866;50.248;8.252;2022-09-28T04:06:27;3.50;;;1.10;;
37407;SDS011;24866;50.248;8.252;2022-09-28T04:08:57;2.33;;;1.23;;
37407;SDS011;24866;50.248;8.252;2022-09-28T04:11:27;3.97;;;1.10;;
37407;SDS011;24866;50.248;8.252;2022-09-28T04:13:57;3.38;;;1.20;;
37407;SDS011;24866;50.248;8.252;2022-09-28T04:16:28;2.97;;;1.25;;
37407;SDS011;24866;50.248;8.252;2022-09-28T04:18:58;3.45;;;1.33;;
37407;SDS011;24866;50.248;8.252;2022-09-28T04:21:28;2.22;;;1.15;;
37407;SDS011;24866;50.248;8.252;2022-09-28T04:23:57;3.95;;;1.20;;
37407;SDS011;24866;50.248;8.252;2022-09-28T04:26:27;3.75;;;1.35;;
37407;SDS011;24866;50.248;8.252;2022-09-28T04:28:57;1.85;;;1.00;;
37407;SDS011;24866;50.248;8.252;2022-09-28T04:31:46;3.83;;;1.10;;
37407;SDS011;24866;50.248;8.252;2022-09-28T04:34:18;2.67;;;1.30;;
37407;SDS011;24866;50.248;8.252;2022-09-28T04:36:50;6.35;;;1.27;;
37407;SDS011;24866;50.248;8.252;2022-09-28T04:39:20;2.20;;;0.70;;
37407;SDS011;24866;50.248;8.252;2022-09-28T04:41:49;6.65;;;1.50;;
37407;SDS011;24866;50.248;8.252;2022-09-28T04:44:19;1.63;;;1.00;;
37407;SDS011;24866;50.248;8.252;2022-09-28T04:46:50;2.67;;;1.02;;
37407;SDS011;24866;50.248;8.252;2022-09-28T04:49:22;2.60;;;0.90;;
37407;SDS011;24866;50.248;8.252;2022-09-28T04:51:52;3.22;;;1.20;;
37407;SDS011;24866;50.248;8.252;2022-09-28T04:54:22;2.22;;;1.08;;
37407;SDS011;24866;50.248;8.252;2022-09-28T04:56:52;2.42;;;1.05;;
37407;SDS011;24866;50.248;8.252;2022-09-28T04:59:22;3.50;;;1.08;;
37407;SDS011;24866;50.248;8.252;2022-09-28T05:01:54;3.00;;;0.80;;
37407;SDS011;24866;50.248;8.252;2022-09-28T05:04:24;1.70;;;0.70;;
37407;SDS011;24866;50.248;8.252;2022-09-28T05:06:55;2.72;;;0.95;;
37407;SDS011;24866;50.248;8.252;2022-09-28T05:09:25;3.25;;;1.00;;
37407;SDS011;24866;50.248;8.252;2022-09-28T05:11:54;3.75;;;0.95;;
37407;SDS011;24866;50.248;8.252;2022-09-28T05:14:24;5.20;;;1.60;;
37407;SDS011;24866;50.248;8.252;2022-09-28T05:16:56;3.38;;;0.90;;
37407;SDS011;24866;50.248;8.252;2022-09-28T05:19:26;2.53;;;0.73;;
37407;SDS011;24866;50.248;8.252;2022-09-28T05:21:57;2.25;;;0.85;;
37407;SDS011;24866;50.248;8.252;2022-09-28T05:24:31;4.80;;;1.25;;
37407;SDS011;24866;50.248;8.252;2022-09-28T05:27:00;1.08;;;0.63;;
37407;SDS011;24866;50.248;8.252;2022-09-28T05:29:30;2.08;;;0.70;;
37407;SDS011;24866;50.248;8.252;2022-09-28T05:32:02;2.22;;;0.73;;
37407;SDS011;24866;50.248;8.252;2022-09-28T05:34:32;2.45;;;0.68;;
37407;SDS011;24866;50.248;8.252;2022-09-28T05:37:02;1.48;;;0.63;;
37407;SDS011;24866;50.248;8.252;2022-09-28T05:39:32;3.55;;;0.80;;
37407;SDS011;24866;50.248;8.252;2022-09-28T05:42:01;1.88;;;0.50;;
37407;SDS011;24866;50.248;8.252;2022-09-28T05:44:31;1.60;;;0.50;;
37407;SDS011;24866;50.248;8.252;2022-09-28T05:47:03;1.30;;;0.55;;
37407;SDS011;24866;50.248;8.252;2022-09-28T05:49:32;5.47;;;1.10;;
37407;SDS011;24866;50.248;8.252;2022-09-28T05:52:02;0.88;;;0.52;;
37407;SDS011;24866;50.248;8.252;2022-09-28T05:54:32;3.50;;;0.57;;
37407;SDS011;24866;50.248;8.252;2022-09-28T05:57:03;2.58;;;0.80;;
37407;SDS011;24866;50.248;8.252;2022-09-28T05:59:34;2.00;;;0.70;;
37407;SDS011;24866;50.248;8.252;2022-09-28T06:02:05;5.25;;;1.00;;
37407;SDS011;24866;50.248;8.252;2022-09-28T06:04:35;2.35;;;0.70;;
37407;SDS011;24866;50.248;8.252;2022-09-28T06:07:05;1.75;;;0.70;;
37407;SDS011;24866;50.248;8.252;2022-09-28T06:09:35;4.03;;;1.13;;
37407;SDS011;24866;50.248;8.252;2022-09-28T06:12:05;1.92;;;0.60;;
37407;SDS011;24866;50.248;8.252;2022-09-28T06:14:35;5.80;;;0.88;;
37407;SDS011;24866;50.248;8.252;2022-09-28T06:17:07;2.00;;;0.85;;
37407;SDS011;24866;50.248;8.252;2022-09-28T06:19:37;1.98;;;0.70;;
37407;SDS011;24866;50.248;8.252;2022-09-28T06:22:07;2.78;;;0.98;;
37407;SDS011;24866;50.248;8.252;2022-09-28T06:24:37;3.55;;;0.90;;
37407;SDS011;24866;50.248;8.252;2022-09-28T06:27:07;2.60;;;1.52;;
37407;SDS011;24866;50.248;8.252;2022-09-28T06:29:36;3.17;;;0.70;;
37407;SDS011;24866;50.248;8.252;2022-09-28T06:32:08;2.38;;;0.63;;
37407;SDS011;24866;50.248;8.252;2022-09-28T06:34:39;2.10;;;0.80;;
37407;SDS011;24866;50.248;8.252;2022-09-28T06:37:10;3.17;;;0.90;;
37407;SDS011;24866;50.248;8.252;2022-09-28T06:39:40;2.75;;;1.00;;
37407;SDS011;24866;50.248;8.252;2022-09-28T06:42:09;2.03;;;0.82;;
37407;SDS011;24866;50.248;8.252;2022-09-28T06:44:39;2.67;;;0.90;;
37407;SDS011;24866;50.248;8.252;2022-09-28T06:47:11;2.97;;;0.75;;
37407;SDS011;24866;50.248;8.252;2022-09-28T06:49:42;2.15;;;0.70;;
37407;SDS011;24866;50.248;8.252;2022-09-28T06:54:44;2.72;;;0.88;;
37407;SDS011;24866;50.248;8.252;2022-09-28T06:57:14;1.88;;;0.88;;
37407;SDS011;24866;50.248;8.252;2022-09-28T06:59:44;2.60;;;0.95;;
37407;SDS011;24866;50.248;8.252;2022-09-28T07:02:15;1.77;;;0.77;;
37407;SDS011;24866;50.248;8.252;2022-09-28T07:04:45;3.67;;;0.98;;
37407;SDS011;24866;50.248;8.252;2022-09-28T07:07:15;2.30;;;0.90;;
37407;SDS011;24866;50.248;8.252;2022-09-28T07:09:45;2.67;;;1.00;;
37407;SDS011;24866;50.248;8.252;2022-09-28T07:12:15;3.83;;;0.88;;
37407;SDS011;24866;50.248;8.252;2022-09-28T07:14:45;5.38;;;1.10;;
37407;SDS011;24866;50.248;8.252;2022-09-28T07:17:18;6.72;;;1.00;;
37407;SDS011;24866;50.248;8.252;2022-09-28T07:19:48;2.85;;;0.80;;
37407;SDS011;24866;50.248;8.252;2022-09-28T07:22:19;2.20;;;0.80;;
37407;SDS011;24866;50.248;8.252;2022-09-28T07:24:49;2.65;;;0.75;;
37407;SDS011;24866;50.248;8.252;2022-09-28T07:27:19;3.90;;;1.00;;
37407;SDS011;24866;50.248;8.252;2022-09-28T07:29:49;4.45;;;0.77;;
37407;SDS011;24866;50.248;8.252;2022-09-28T07:32:21;3.80;;;0.90;;
37407;SDS011;24866;50.248;8.252;2022-09-28T07:34:51;6.45;;;0.90;;
37407;SDS011;24866;50.248;8.252;2022-09-28T07:37:23;1.77;;;0.80;;
37407;SDS011;24866;50.248;8.252;2022-09-28T07:39:53;3.65;;;1.10;;
37407;SDS011;24866;50.248;8.252;2022-09-28T07:42:46;2.90;;;0.97;;
37407;SDS011;24866;50.248;8.252;2022-09-28T07:45:16;1.48;;;0.70;;
37407;SDS011;24866;50.248;8.252;2022-09-28T07:47:49;4.55;;;1.23;;
37407;SDS011;24866;50.248;8.252;2022-09-28T07:50:19;3.17;;;1.10;;
37407;SDS011;24866;50.248;8.252;2022-09-28T07:52:49;3.80;;;0.90;;
37407;SDS011;24866;50.248;8.252;2022-09-28T07:55:19;2.30;;;0.60;;
37407;SDS011;24866;50.248;8.252;2022-09-28T07:57:52;4.88;;;0.90;;
37407;SDS011;24866;50.248;8.252;2022-09-28T08:00:23;2.25;;;0.70;;
37407;SDS011;24866;50.248;8.252;2022-09-28T08:02:55;3.15;;;1.67;;
37407;SDS011;24866;50.248;8.252;2022-09-28T08:05:27;2.83;;;0.80;;
37407;SDS011;24866;50.248;8.252;2022-09-28T08:07:59;3.70;;;0.90;;
37407;SDS011;24866;50.248;8.252;2022-09-28T08:10:30;1.63;;;0.65;;
37407;SDS011;24866;50.248;8.252;2022-09-28T08:13:00;3.92;;;0.82;;
37407;SDS011;24866;50.248;8.252;2022-09-28T08:15:30;4.13;;;0.80;;
37407;SDS011;24866;50.248;8.252;2022-09-28T08:18:05;4.50;;;0.90;;
37407;SDS011;24866;50.248;8.252;2022-09-28T08:20:35;2.13;;;1.00;;
37407;SDS011;24866;50.248;8.252;2022-09-28T08:23:22;4.00;;;1.02;;
37407;SDS011;24866;50.248;8.252;2022-09-28T08:25:52;2.70;;;1.00;;
37407;SDS011;24866;50.248;8.252;2022-09-28T08:28:22;2.05;;;0.90;;
37407;SDS011;24866;50.248;8.252;2022-09-28T08:30:52;1.77;;;0.73;;
37407;SDS011;24866;50.248;8.252;2022-09-28T08:33:24;2.00;;;0.60;;
37407;SDS011;24866;50.248;8.252;2022-09-28T08:35:54;4.05;;;0.80;;
37407;SDS011;24866;50.248;8.252;2022-09-28T08:38:26;1.13;;;0.90;;
37407;SDS011;24866;50.248;8.252;2022-09-28T08:41:02;1.57;;;0.83;;
37407;SDS011;24866;50.248;8.252;2022-09-28T08:43:51;9.68;;;1.30;;
37407;SDS011;24866;50.248;8.252;2022-09-28T08:46:39;4.05;;;0.88;;
37407;SDS011;24866;50.248;8.252;2022-09-28T08:49:16;3.08;;;0.77;;
37407;SDS011;24866;50.248;8.252;2022-09-28T08:51:54;4.57;;;0.82;;
37407;SDS011;24866;50.248;8.252;2022-09-28T08:54:32;1.42;;;0.60;;
37407;SDS011;24866;50.248;8.252;2022-09-28T08:57:09;3.88;;;0.75;;
37407;SDS011;24866;50.248;8.252;2022-09-28T08:59:44;2.05;;;0.60;;
37407;SDS011;24866;50.248;8.252;2022-09-28T09:02:19;4.30;;;1.08;;
37407;SDS011;24866;50.248;8.252;2022-09-28T09:04:53;2.25;;;1.20;;
37407;SDS011;24866;50.248;8.252;2022-09-28T09:07:28;2.28;;;0.50;;
37407;SDS011;24866;50.248;8.252;2022-09-28T09:10:20;3.25;;;0.80;;
37407;SDS011;24866;50.248;8.252;2022-09-28T09:13:29;3.05;;;1.20;;
37407;SDS011;24866;50.248;8.252;2022-09-28T09:16:14;5.03;;;1.08;;
37407;SDS011;24866;50.248;8.252;2022-09-28T09:18:57;4.75;;;0.93;;
37407;SDS011;24866;50.248;8.252;2022-09-28T09:21:43;1.35;;;0.50;;
37407;SDS011;24866;50.248;8.252;2022-09-28T09:24:23;2.45;;;1.08;;
37407;SDS011;24866;50.248;8.252;2022-09-28T09:27:03;2.92;;;0.50;;
37407;SDS011;24866;50.248;8.252;2022-09-28T09:29:41;3.53;;;0.63;;
37407;SDS011;24866;50.248;8.252;2022-09-28T09:32:36;1.60;;;0.57;;
37407;SDS011;24866;50.248;8.252;2022-09-28T09:35:20;1.92;;;0.68;;
37407;SDS011;24866;50.248;8.252;2022-09-28T09:38:14;1.95;;;0.45;;
37407;SDS011;24866;50.248;8.252;2022-09-28T09:40:57;3.03;;;0.70;;
37407;SDS011;24866;50.248;8.252;2022-09-28T09:43:41;2.22;;;0.45;;
37407;SDS011;24866;50.248;8.252;2022-09-28T09:46:39;3.03;;;0.77;;
37407;SDS011;24866;50.248;8.252;2022-09-28T09:49:16;1.70;;;0.52;;
37407;SDS011;24866;50.248;8.252;2022-09-28T09:51:51;1.98;;;0.68;;
37407;SDS011;24866;50.248;8.252;2022-09-28T09:54:30;3.97;;;0.55;;
37407;SDS011;24866;50.248;8.252;2022-09-28T09:57:06;1.20;;;0.80;;
37407;SDS011;24866;50.248;8.252;2022-09-28T09:59:41;3.53;;;0.73;;
37407;SDS011;24866;50.248;8.252;2022-09-28T10:02:14;3.65;;;0.40;;
37407;SDS011;24866;50.248;8.252;2022-09-28T10:04:51;2.80;;;0.70;;
37407;SDS011;24866;50.248;8.252;2022-09-28T10:07:25;2.50;;;0.60;;
37407;SDS011;24866;50.248;8.252;2022-09-28T10:10:09;1.70;;;0.60;;
37407;SDS011;24866;50.248;8.252;2022-09-28T10:12:42;1.02;;;0.35;;
37407;SDS011;24866;50.248;8.252;2022-09-28T10:15:13;1.42;;;0.60;;
37407;SDS011;24866;50.248;8.252;2022-09-28T10:17:46;2.03;;;0.60;;
37407;SDS011;24866;50.248;8.252;2022-09-28T10:20:17;1.55;;;0.40;;
37407;SDS011;24866;50.248;8.252;2022-09-28T10:22:47;4.93;;;1.17;;
37407;SDS011;24866;50.248;8.252;2022-09-28T10:25:20;0.93;;;0.55;;
37407;SDS011;24866;50.248;8.252;2022-09-28T10:27:50;17.13;;;1.00;;
37407;SDS011;24866;50.248;8.252;2022-09-28T10:30:22;0.80;;;0.30;;
37407;SDS011;24866;50.248;8.252;2022-09-28T10:32:53;3.03;;;0.40;;
37407;SDS011;24866;50.248;8.252;2022-09-28T10:35:27;4.10;;;0.82;;
37407;SDS011;24866;50.248;8.252;2022-09-28T10:40:36;2.72;;;0.43;;
37407;SDS011;24866;50.248;8.252;2022-09-28T10:43:17;1.52;;;0.40;;
37407;SDS011;24866;50.248;8.252;2022-09-28T10:46:00;2.80;;;0.52;;
37407;SDS011;24866;50.248;8.252;2022-09-28T10:48:37;1.63;;;0.50;;
37407;SDS011;24866;50.248;8.252;2022-09-28T10:51:17;0.93;;;0.50;;
37407;SDS011;24866;50.248;8.252;2022-09-28T10:53:56;2.22;;;0.40;;
37407;SDS011;24866;50.248;8.252;2022-09-28T10:56:34;3.30;;;0.45;;
37407;SDS011;24866;50.248;8.252;2022-09-28T10:59:06;1.60;;;0.70;;
37407;SDS011;24866;50.248;8.252;2022-09-28T11:01:52;1.92;;;0.50;;
37407;SDS011;24866;50.248;8.252;2022-09-28T11:04:25;1.30;;;0.50;;
37407;SDS011;24866;50.248;8.252;2022-09-28T11:06:57;1.83;;;0.40;;
37407;SDS011;24866;50.248;8.252;2022-09-28T11:09:29;1.50;;;0.50;;
37407;SDS011;24866;50.248;8.252;2022-09-28T11:12:02;1.40;;;0.80;;
37407;SDS011;24866;50.248;8.252;2022-09-28T11:14:35;5.93;;;1.02;;
37407;SDS011;24866;50.248;8.252;2022-09-28T11:17:13;3.35;;;1.15;;
37407;SDS011;24866;50.248;8.252;2022-09-28T11:19:44;1.50;;;0.50;;
37407;SDS011;24866;50.248;8.252;2022-09-28T11:22:22;0.73;;;0.30;;
37407;SDS011;24866;50.248;8.252;2022-09-28T11:25:12;1.33;;;0.55;;
37407;SDS011;24866;50.248;8.252;2022-09-28T11:27:55;1.35;;;0.47;;
37407;SDS011;24866;50.248;8.252;2022-09-28T11:30:28;2.67;;;0.45;;
37407;SDS011;24866;50.248;8.252;2022-09-28T11:33:01;2.90;;;0.38;;
37407;SDS011;24866;50.248;8.252;2022-09-28T11:35:40;1.50;;;0.60;;
37407;SDS011;24866;50.248;8.252;2022-09-28T11:38:17;1.67;;;0.50;;
37407;SDS011;24866;50.248;8.252;2022-09-28T11:41:15;1.20;;;0.50;;
37407;SDS011;24866;50.248;8.252;2022-09-28T11:44:15;1.42;;;0.28;;
37407;SDS011;24866;50.248;8.252;2022-09-28T11:46:54;2.70;;;0.50;;
37407;SDS011;24866;50.248;8.252;2022-09-28T11:49:35;2.17;;;0.50;;
37407;SDS011;24866;50.248;8.252;2022-09-28T11:52:11;1.05;;;0.77;;
37407;SDS011;24866;50.248;8.252;2022-09-28T11:54:47;2.00;;;0.50;;
37407;SDS011;24866;50.248;8.252;2022-09-28T11:57:23;1.92;;;0.43;;
37407;SDS011;24866;50.248;8.252;2022-09-28T11:59:57;2.05;;;0.70;;
37407;SDS011;24866;50.248;8.252;2022-09-28T12:02:32;2.45;;;0.57;;
37407;SDS011;24866;50.248;8.252;2022-09-28T12:05:10;3.42;;;0.40;;
37407;SDS011;24866;50.248;8.252;2022-09-28T12:07:45;2.47;;;0.40;;
37407;SDS011;24866;50.248;8.252;2022-09-28T12:10:19;2.42;;;0.40;;
37407;SDS011;24866;50.248;8.252;2022-09-28T12:12:56;0.55;;;0.40;;
37407;SDS011;24866;50.248;8.252;2022-09-28T12:15:32;1.08;;;0.38;;
37407;SDS011;24866;50.248;8.252;2022-09-28T12:18:10;2.60;;;0.40;;
37407;SDS011;24866;50.248;8.252;2022-09-28T12:20:45;3.03;;;0.50;;
37407;SDS011;24866;50.248;8.252;2022-09-28T12:23:19;1.75;;;0.55;;
37407;SDS011;24866;50.248;8.252;2022-09-28T12:25:54;1.60;;;0.30;;
37407;SDS011;24866;50.248;8.252;2022-09-28T12:28:29;2.78;;;0.52;;
37407;SDS011;24866;50.248;8.252;2022-09-28T12:31:08;0.63;;;0.30;;
37407;SDS011;24866;50.248;8.252;2022-09-28T12:33:44;1.60;;;0.40;;
37407;SDS011;24866;50.248;8.252;2022-09-28T12:36:19;1.48;;;0.30;;
37407;SDS011;24866;50.248;8.252;2022-09-28T12:39:02;1.20;;;0.40;;
37407;SDS011;24866;50.248;8.252;2022-09-28T12:41:51;1.65;;;0.50;;
37407;SDS011;24866;50.248;8.252;2022-09-28T12:44:36;1.15;;;0.30;;
37407;SDS011;24866;50.248;8.252;2022-09-28T12:47:28;1.65;;;0.50;;
37407;SDS011;24866;50.248;8.252;2022-09-28T12:50:20;1.85;;;0.60;;
37407;SDS011;24866;50.248;8.252;2022-09-28T12:53:02;0.50;;;0.20;;
37407;SDS011;24866;50.248;8.252;2022-09-28T12:55:50;0.85;;;0.38;;
37407;SDS011;24866;50.248;8.252;2022-09-28T13:01:31;3.13;;;0.68;;
37407;SDS011;24866;50.248;8.252;2022-09-28T13:04:22;1.30;;;0.30;;
37407;SDS011;24866;50.248;8.252;2022-09-28T13:07:08;0.70;;;0.20;;
37407;SDS011;24866;50.248;8.252;2022-09-28T13:09:49;0.88;;;0.28;;
37407;SDS011;24866;50.248;8.252;2022-09-28T13:12:29;1.38;;;0.20;;
37407;SDS011;24866;50.248;8.252;2022-09-28T13:15:16;1.55;;;0.30;;
37407;SDS011;24866;50.248;8.252;2022-09-28T13:18:01;1.98;;;0.50;;
37407;SDS011;24866;50.248;8.252;2022-09-28T13:20:45;0.20;;;0.10;;
37407;SDS011;24866;50.248;8.252;2022-09-28T13:23:32;1.77;;;0.30;;
37407;SDS011;24866;50.248;8.252;2022-09-28T13:26:08;0.95;;;0.38;;
37407;SDS011;24866;50.248;8.252;2022-09-28T13:28:42;2.38;;;0.40;;
37407;SDS011;24866;50.248;8.252;2022-09-28T13:31:16;1.15;;;0.30;;
37407;SDS011;24866;50.248;8.252;2022-09-28T13:33:49;0.55;;;0.20;;
37407;SDS011;24866;50.248;8.252;2022-09-28T13:44:48;1.25;;;0.47;;
37407;SDS011;24866;50.248;8.252;2022-09-28T13:47:37;1.67;;;0.40;;
37407;SDS011;24866;50.248;8.252;2022-09-28T13:50:25;0.70;;;0.30;;
37407;SDS011;24866;50.248;8.252;2022-09-28T13:53:02;1.17;;;0.60;;
37407;SDS011;24866;50.248;8.252;2022-09-28T13:55:40;0.80;;;0.35;;
37407;SDS011;24866;50.248;8.252;2022-09-28T13:58:24;1.60;;;0.40;;
37407;SDS011;24866;50.248;8.252;2022-09-28T14:00:58;3.28;;;0.32;;
37407;SDS011;24866;50.248;8.252;2022-09-28T14:03:41;1.13;;;0.30;;
37407;SDS011;24866;50.248;8.252;2022-09-28T14:06:23;2.63;;;0.35;;
37407;SDS011;24866;50.248;8.252;2022-09-28T14:11:59;0.65;;;0.22;;
37407;SDS011;24866;50.248;8.252;2022-09-28T14:14:47;1.17;;;0.40;;
37407;SDS011;24866;50.248;8.252;2022-09-28T14:26:02;0.22;;;0.20;;
37407;SDS011;24866;50.248;8.252;2022-09-28T14:28:54;1.90;;;0.52;;
37407;SDS011;24866;50.248;8.252;2022-09-28T14:31:37;1.52;;;0.50;;
37407;SDS011;24866;50.248;8.252;2022-09-28T14:34:21;1.52;;;0.47;;
37407;SDS011;24866;50.248;8.252;2022-09-28T14:36:55;1.23;;;0.45;;
37407;SDS011;24866;50.248;8.252;2022-09-28T14:39:43;3.50;;;0.60;;
37407;SDS011;24866;50.248;8.252;2022-09-28T14:42:31;1.50;;;0.30;;
37407;SDS011;24866;50.248;8.252;2022-09-28T14:48:12;2.10;;;0.40;;
37407;SDS011;24866;50.248;8.252;2022-09-28T14:50:47;4.18;;;1.00;;
37407;SDS011;24866;50.248;8.252;2022-09-28T14:53:19;2.35;;;0.57;;
37407;SDS011;24866;50.248;8.252;2022-09-28T14:55:53;2.25;;;0.50;;
37407;SDS011;24866;50.248;8.252;2022-09-28T14:58:26;2.08;;;0.40;;
37407;SDS011;24866;50.248;8.252;2022-09-28T15:01:00;1.90;;;0.40;;
37407;SDS011;24866;50.248;8.252;2022-09-28T15:03:33;1.40;;;0.38;;
37407;SDS011;24866;50.248;8.252;2022-09-28T15:06:11;1.25;;;0.40;;
37407;SDS011;24866;50.248;8.252;2022-09-28T15:08:44;2.97;;;0.30;;
37407;SDS011;24866;50.248;8.252;2022-09-28T15:11:14;0.70;;;0.30;;
37407;SDS011;24866;50.248;8.252;2022-09-28T15:13:46;1.80;;;0.20;;
37407;SDS011;24866;50.248;8.252;2022-09-28T15:16:22;2.55;;;0.50;;
37407;SDS011;24866;50.248;8.252;2022-09-28T15:19:00;1.67;;;0.30;;
37407;SDS011;24866;50.248;8.252;2022-09-28T15:21:41;3.63;;;0.40;;
37407;SDS011;24866;50.248;8.252;2022-09-28T15:24:24;1.98;;;0.50;;
37407;SDS011;24866;50.248;8.252;2022-09-28T15:26:55;1.13;;;0.45;;
37407;SDS011;24866;50.248;8.252;2022-09-28T15:29:26;1.27;;;0.50;;
37407;SDS011;24866;50.248;8.252;2022-09-28T15:32:00;1.45;;;0.43;;
37407;SDS011;24866;50.248;8.252;2022-09-28T15:34:31;1.27;;;0.40;;
37407;SDS011;24866;50.248;8.252;2022-09-28T15:37:20;1.80;;;0.47;;
37407;SDS011;24866;50.248;8.252;2022-09-28T15:39:53;2.15;;;0.38;;
37407;SDS011;24866;50.248;8.252;2022-09-28T15:42:24;1.60;;;0.32;;
37407;SDS011;24866;50.248;8.252;2022-09-28T15:44:58;4.13;;;0.30;;
37407;SDS011;24866;50.248;8.252;2022-09-28T15:47:34;2.15;;;0.60;;
37407;SDS011;24866;50.248;8.252;2022-09-28T15:50:06;1.23;;;0.45;;
37407;SDS011;24866;50.248;8.252;2022-09-28T15:52:51;6.93;;;1.02;;
37407;SDS011;24866;50.248;8.252;2022-09-28T15:55:23;2.80;;;1.08;;
37407;SDS011;24866;50.248;8.252;2022-09-28T15:58:04;1.73;;;0.65;;
37407;SDS011;24866;50.248;8.252;2022-09-28T16:00:35;2.95;;;0.70;;
37407;SDS011;24866;50.248;8.252;2022-09-28T16:03:19;2.63;;;0.50;;
37407;SDS011;24866;50.248;8.252;2022-09-28T16:06:03;3.65;;;0.93;;
37407;SDS011;24866;50.248;8.252;2022-09-28T16:08:38;2.42;;;0.85;;
37407;SDS011;24866;50.248;8.252;2022-09-28T16:11:11;5.57;;;0.60;;
37407;SDS011;24866;50.248;8.252;2022-09-28T16:13:50;1.90;;;0.50;;
37407;SDS011;24866;50.248;8.252;2022-09-28T16:16:25;2.30;;;0.90;;